<?xml version="1.0" encoding="utf-8"?>
<gpx xmlns:xsi="http://www.w3.org/2001/XMLSchema-instance" xmlns:xsd="http://www.w3.org/2001/XMLSchema" version="1.1" creator="Shapelink.com" xmlns="http://www.topografix.com/GPX/1/1" xmlns:gpxtpx="http://www.garmin.com/xmlschemas/TrackPointExtension/v1">
  <metadata>
    <name>Övrigt 2.19 km, 2020-08-12</name>
    <desc></desc>
    <author><name>Marian Moron</name></author> 
    <time>2020-08-12T21:16:07Z</time>
  </metadata>
  <trk>
    <name>Övrigt 2.19 km, 2020-08-12</name>
    <trkseg>
      <trkpt lat="51.229777844872" lon="4.457902450892">
        <ele>0</ele>
        <time>2020-08-12T21:16:07Z</time>
      </trkpt>
      <trkpt lat="51.229842972235" lon="4.457756102918">
        <ele>0</ele>
        <time>2020-08-12T21:16:19Z</time>
      </trkpt>
      <trkpt lat="51.229802906753" lon="4.457535407491">
        <ele>0</ele>
        <time>2020-08-12T21:16:31Z</time>
      </trkpt>
      <trkpt lat="51.22977968889" lon="4.456916571814">
        <ele>0</ele>
        <time>2020-08-12T21:16:56Z</time>
      </trkpt>
      <trkpt lat="51.229882953898" lon="4.456669473402">
        <ele>0</ele>
        <time>2020-08-12T21:17:08Z</time>
      </trkpt>
      <trkpt lat="51.229947410709" lon="4.456619098183">
        <ele>0</ele>
        <time>2020-08-12T21:17:18Z</time>
      </trkpt>
      <trkpt lat="51.229973897513" lon="4.456517258098">
        <ele>0</ele>
        <time>2020-08-12T21:17:31Z</time>
      </trkpt>
      <trkpt lat="51.230143630988" lon="4.45644165336">
        <ele>3.2</ele>
        <time>2020-08-12T21:18:08Z</time>
      </trkpt>
      <trkpt lat="51.230384778251" lon="4.456472331114">
        <ele>9</ele>
        <time>2020-08-12T21:18:35Z</time>
      </trkpt>
      <trkpt lat="51.230847962045" lon="4.456295053929">
        <ele>17.2</ele>
        <time>2020-08-12T21:19:09Z</time>
      </trkpt>
      <trkpt lat="51.231002440462" lon="4.456126577739">
        <ele>20.2</ele>
        <time>2020-08-12T21:19:16Z</time>
      </trkpt>
      <trkpt lat="51.230992717458" lon="4.456295221567">
        <ele>17.4</ele>
        <time>2020-08-12T21:20:02Z</time>
      </trkpt>
      <trkpt lat="51.23104703217" lon="4.456347943718">
        <ele>16.8</ele>
        <time>2020-08-12T21:20:09Z</time>
      </trkpt>
      <trkpt lat="51.231252472539" lon="4.45634861427">
        <ele>17</ele>
        <time>2020-08-12T21:20:34Z</time>
      </trkpt>
      <trkpt lat="51.231273511108" lon="4.456344507139">
        <ele>17.2</ele>
        <time>2020-08-12T21:20:36Z</time>
      </trkpt>
      <trkpt lat="51.231673243919" lon="4.456592611379">
        <ele>17.4</ele>
        <time>2020-08-12T21:21:19Z</time>
      </trkpt>
      <trkpt lat="51.232115556782" lon="4.456796794463">
        <ele>19</ele>
        <time>2020-08-12T21:22:07Z</time>
      </trkpt>
      <trkpt lat="51.232413868603" lon="4.457341617963">
        <ele>17.8</ele>
        <time>2020-08-12T21:22:50Z</time>
      </trkpt>
      <trkpt lat="51.232470362609" lon="4.457618975034">
        <ele>13</ele>
        <time>2020-08-12T21:23:14Z</time>
      </trkpt>
      <trkpt lat="51.232443791986" lon="4.457748726846">
        <ele>9.2</ele>
        <time>2020-08-12T21:23:25Z</time>
      </trkpt>
      <trkpt lat="51.232035341999" lon="4.458050642884">
        <ele>7</ele>
        <time>2020-08-12T21:24:00Z</time>
      </trkpt>
      <trkpt lat="51.231812634916" lon="4.458231691924">
        <ele>11</ele>
        <time>2020-08-12T21:24:22Z</time>
      </trkpt>
      <trkpt lat="51.231669136788" lon="4.458312828716">
        <ele>15</ele>
        <time>2020-08-12T21:24:39Z</time>
      </trkpt>
      <trkpt lat="51.231737113997" lon="4.458999893059">
        <ele>2.4</ele>
        <time>2020-08-12T21:25:18Z</time>
      </trkpt>
      <trkpt lat="51.231789333234" lon="4.459412114901">
        <ele>0</ele>
        <time>2020-08-12T21:25:44Z</time>
      </trkpt>
      <trkpt lat="51.231820765359" lon="4.459551086803">
        <ele>0</ele>
        <time>2020-08-12T21:26:01Z</time>
      </trkpt>
      <trkpt lat="51.231844234679" lon="4.459792569342">
        <ele>0.4</ele>
        <time>2020-08-12T21:26:18Z</time>
      </trkpt>
      <trkpt lat="51.231883126695" lon="4.459936486565">
        <ele>0</ele>
        <time>2020-08-12T21:26:35Z</time>
      </trkpt>
      <trkpt lat="51.232009525747" lon="4.460622209804">
        <ele>0</ele>
        <time>2020-08-12T21:27:16Z</time>
      </trkpt>
      <trkpt lat="51.232153023875" lon="4.46129728803">
        <ele>0</ele>
        <time>2020-08-12T21:27:55Z</time>
      </trkpt>
      <trkpt lat="51.232212619184" lon="4.461773882864">
        <ele>1.6</ele>
        <time>2020-08-12T21:28:30Z</time>
      </trkpt>
      <trkpt lat="51.232316638563" lon="4.462425156494">
        <ele>3</ele>
        <time>2020-08-12T21:29:13Z</time>
      </trkpt>
      <trkpt lat="51.232334994924" lon="4.462486512002">
        <ele>3.4</ele>
        <time>2020-08-12T21:29:17Z</time>
      </trkpt>
      <trkpt lat="51.232176157919" lon="4.462791026429">
        <ele>15.6</ele>
        <time>2020-08-12T21:30:39Z</time>
      </trkpt>
      <trkpt lat="51.23203274361" lon="4.463431738865">
        <ele>7</ele>
        <time>2020-08-12T21:32:16Z</time>
      </trkpt>
      <trkpt lat="51.232000557114" lon="4.463499548436">
        <ele>8.4</ele>
        <time>2020-08-12T21:32:21Z</time>
      </trkpt>
      <trkpt lat="51.231876588813" lon="4.463630641352">
        <ele>8.6</ele>
        <time>2020-08-12T21:32:40Z</time>
      </trkpt>
      <trkpt lat="51.231734180332" lon="4.46351513877">
        <ele>11.6</ele>
        <time>2020-08-12T21:33:17Z</time>
      </trkpt>
      <trkpt lat="51.231703502578" lon="4.463458477126">
        <ele>12.2</ele>
        <time>2020-08-12T21:33:21Z</time>
      </trkpt>
      <trkpt lat="51.231699479266" lon="4.463448418846">
        <ele>10.8</ele>
        <time>2020-08-12T21:33:43Z</time>
      </trkpt>
      <trkpt lat="51.231836355693" lon="4.463599293046">
        <ele>8.8</ele>
        <time>2020-08-12T21:34:04Z</time>
      </trkpt>
      <trkpt lat="51.23189611864" lon="4.463592084612">
        <ele>10.2</ele>
        <time>2020-08-12T21:34:10Z</time>
      </trkpt>
      <trkpt lat="51.23204531646" lon="4.463417741092">
        <ele>24.8</ele>
        <time>2020-08-12T21:34:50Z</time>
      </trkpt>
      <trkpt lat="51.232174649177" lon="4.462723300677">
        <ele>16.4</ele>
        <time>2020-08-12T21:35:31Z</time>
      </trkpt>
      <trkpt lat="51.232227622785" lon="4.462185098878">
        <ele>11.8</ele>
        <time>2020-08-12T21:35:59Z</time>
      </trkpt>
      <trkpt lat="51.232168614209" lon="4.462004217476">
        <ele>7</ele>
        <time>2020-08-12T21:36:09Z</time>
      </trkpt>
      <trkpt lat="51.232143300871" lon="4.461793915605">
        <ele>1.4</ele>
        <time>2020-08-12T21:36:20Z</time>
      </trkpt>
      <trkpt lat="51.232123938682" lon="4.461598617335">
        <ele>0</ele>
        <time>2020-08-12T21:36:37Z</time>
      </trkpt>
      <trkpt lat="51.231939369244" lon="4.461531310678">
        <ele>0</ele>
        <time>2020-08-12T21:37:06Z</time>
      </trkpt>
      <trkpt lat="51.231883378152" lon="4.461475906319">
        <ele>0</ele>
        <time>2020-08-12T21:37:12Z</time>
      </trkpt>
      <trkpt lat="51.23188354579" lon="4.460760343516">
        <ele>3.8</ele>
        <time>2020-08-12T21:37:45Z</time>
      </trkpt>
      <trkpt lat="51.231852448941" lon="4.460494050553">
        <ele>2</ele>
        <time>2020-08-12T21:38:02Z</time>
      </trkpt>
      <trkpt lat="51.231739125653" lon="4.459794078084">
        <ele>0</ele>
        <time>2020-08-12T21:38:40Z</time>
      </trkpt>
      <trkpt lat="51.231704256949" lon="4.459639012934">
        <ele>0</ele>
        <time>2020-08-12T21:38:47Z</time>
      </trkpt>
      <trkpt lat="51.231703251121" lon="4.459587212792">
        <ele>0</ele>
        <time>2020-08-12T21:38:50Z</time>
      </trkpt>
      <trkpt lat="51.231664526743" lon="4.459330139919">
        <ele>1</ele>
        <time>2020-08-12T21:39:03Z</time>
      </trkpt>
      <trkpt lat="51.231530919257" lon="4.458635783323">
        <ele>0</ele>
        <time>2020-08-12T21:39:37Z</time>
      </trkpt>
      <trkpt lat="51.231452548492" lon="4.458444340727">
        <ele>0</ele>
        <time>2020-08-12T21:39:51Z</time>
      </trkpt>
      <trkpt lat="51.231179214733" lon="4.458027341202">
        <ele>5.4</ele>
        <time>2020-08-12T21:40:25Z</time>
      </trkpt>
      <trkpt lat="51.231165049322" lon="4.45791016224">
        <ele>3.8</ele>
        <time>2020-08-12T21:40:34Z</time>
      </trkpt>
      <trkpt lat="51.231137053776" lon="4.457528031419">
        <ele>0</ele>
        <time>2020-08-12T21:40:56Z</time>
      </trkpt>
      <trkpt lat="51.231276025678" lon="4.456848762243">
        <ele>0.6</ele>
        <time>2020-08-12T21:41:33Z</time>
      </trkpt>
      <trkpt lat="51.231280384266" lon="4.45682889714">
        <ele>0.8</ele>
        <time>2020-08-12T21:41:34Z</time>
      </trkpt>
      <trkpt lat="51.231240486422" lon="4.456447939785">
        <ele>2.2</ele>
        <time>2020-08-12T21:41:55Z</time>
      </trkpt>
      <trkpt lat="51.231053486233" lon="4.456435702211">
        <ele>6.4</ele>
        <time>2020-08-12T21:42:21Z</time>
      </trkpt>
      <trkpt lat="51.230991543992" lon="4.456450286717">
        <ele>7.8</ele>
        <time>2020-08-12T21:42:26Z</time>
      </trkpt>
      <trkpt lat="51.230920549299" lon="4.456349033365">
        <ele>15.4</ele>
        <time>2020-08-12T21:42:35Z</time>
      </trkpt>
      <trkpt lat="51.230761879932" lon="4.456253144429">
        <ele>23</ele>
        <time>2020-08-12T21:42:57Z</time>
      </trkpt>
      <trkpt lat="51.230585860032" lon="4.456360684206">
        <ele>21</ele>
        <time>2020-08-12T21:43:16Z</time>
      </trkpt>
      <trkpt lat="51.230392070504" lon="4.456377364187">
        <ele>17.2</ele>
        <time>2020-08-12T21:43:38Z</time>
      </trkpt>
      <trkpt lat="51.230148911585" lon="4.456587079325">
        <ele>14.6</ele>
        <time>2020-08-12T21:44:19Z</time>
      </trkpt>
      <trkpt lat="51.230125190808" lon="4.456718339879">
        <ele>13.6</ele>
        <time>2020-08-12T21:44:27Z</time>
      </trkpt>
      <trkpt lat="51.230051765364" lon="4.456756980438">
        <ele>11</ele>
        <time>2020-08-12T21:44:34Z</time>
      </trkpt>
      <trkpt lat="51.229767032221" lon="4.456801069232">
        <ele>9.6</ele>
        <time>2020-08-12T21:45:07Z</time>
      </trkpt>
      <trkpt lat="51.22931700801" lon="4.456857311781">
        <ele>12</ele>
        <time>2020-08-12T21:45:52Z</time>
      </trkpt>
      <trkpt lat="51.228864888324" lon="4.456976753856">
        <ele>22.6</ele>
        <time>2020-08-12T21:46:39Z</time>
      </trkpt>
      <trkpt lat="51.228518129121" lon="4.45738042616">
        <ele>3.2</ele>
        <time>2020-08-12T21:47:25Z</time>
      </trkpt>
      <trkpt lat="51.228543610097" lon="4.457502298986">
        <ele>2</ele>
        <time>2020-08-12T21:47:34Z</time>
      </trkpt>
      <trkpt lat="51.22864142687" lon="4.458196068849">
        <ele>0</ele>
        <time>2020-08-12T21:48:22Z</time>
      </trkpt>
      <trkpt lat="51.228701022179" lon="4.458259184556">
        <ele>0</ele>
        <time>2020-08-12T21:48:36Z</time>
      </trkpt>
      <trkpt lat="51.229134953142" lon="4.458066987589">
        <ele>5.8</ele>
        <time>2020-08-12T21:49:29Z</time>
      </trkpt>
      <trkpt lat="51.229573577969" lon="4.457918125045">
        <ele>13.2</ele>
        <time>2020-08-12T21:50:18Z</time>
      </trkpt>
      <trkpt lat="51.229633340916" lon="4.45789423663">
        <ele>15.6</ele>
        <time>2020-08-12T21:50:29Z</time>
      </trkpt>
      <trkpt lat="51.229700228478" lon="4.457892392612">
        <ele>21.6</ele>
        <time>2020-08-12T21:51:04Z</time>
      </trkpt>
    </trkseg>
  </trk>
</gpx>